Time;durP1;ratioP1;P1;durP2;ratioP2;P2;SDS_P1;SDS_P2;PMS_P1;PMS_P2;Temp;Humidity;BMP_temperature;BMP_pressure;BME280_temperature;BME280_humidity;BME280_pressure;Samples;Min_cycle;Max_cycle;Signal;HPM_P1;HPM_P2
2023/06/13 00:01:22;;;;;;;3.80;2.40;;;;;;;;;;5068553;28;20134;-83
2023/06/13 00:03:49;;;;;;;5.18;2.60;;;;;;;;;;5068789;28;20044;-82
2023/06/13 00:06:15;;;;;;;5.30;3.08;;;;;;;;;;5052504;28;20120;-83
2023/06/13 00:08:42;;;;;;;6.30;2.60;;;;;;;;;;5057190;28;20048;-83
2023/06/13 00:11:08;;;;;;;5.65;2.72;;;;;;;;;;5042588;28;20111;-82
2023/06/13 00:13:34;;;;;;;9.48;3.00;;;;;;;;;;5044079;28;20044;-83
2023/06/13 00:16:00;;;;;;;4.28;2.63;;;;;;;;;;5047867;28;20060;-83
2023/06/13 00:18:29;;;;;;;8.38;2.90;;;;;;;;;;5068766;28;20029;-83
2023/06/13 00:20:55;;;;;;;3.80;2.63;;;;;;;;;;5064430;28;20041;-82
2023/06/13 00:23:22;;;;;;;5.53;2.75;;;;;;;;;;5055167;28;20049;-82
2023/06/13 00:25:48;;;;;;;6.85;3.03;;;;;;;;;;5057011;28;20041;-83
2023/06/13 00:28:13;;;;;;;7.95;2.80;;;;;;;;;;5042592;28;20037;-83
2023/06/13 00:30:39;;;;;;;4.15;2.67;;;;;;;;;;5063885;28;20037;-81
2023/06/13 00:33:05;;;;;;;5.10;2.85;;;;;;;;;;5049357;28;20034;-82
2023/06/13 00:35:31;;;;;;;8.52;2.80;;;;;;;;;;5035120;28;20043;-83
2023/06/13 00:37:57;;;;;;;5.57;3.00;;;;;;;;;;5046800;28;20104;-83
2023/06/13 00:40:25;;;;;;;9.10;2.60;;;;;;;;;;5055568;28;20063;-83
2023/06/13 00:42:52;;;;;;;4.53;2.47;;;;;;;;;;5041069;28;20033;-82
2023/06/13 00:45:17;;;;;;;4.82;2.72;;;;;;;;;;5061875;28;20033;-84
2023/06/13 00:47:45;;;;;;;5.82;2.80;;;;;;;;;;5046612;28;20044;-83
2023/06/13 00:50:12;;;;;;;4.15;2.60;;;;;;;;;;5066490;28;20039;-83
2023/06/13 00:52:39;;;;;;;7.53;2.63;;;;;;;;;;5068894;28;20025;-83
2023/06/13 00:55:06;;;;;;;4.82;2.65;;;;;;;;;;5020456;28;20045;-83
2023/06/13 00:57:33;;;;;;;3.95;2.70;;;;;;;;;;5049034;28;20033;-82
2023/06/13 01:00:04;;;;;;;4.85;2.47;;;;;;;;;;5049858;28;20042;-82
2023/06/13 01:02:30;;;;;;;6.50;2.70;;;;;;;;;;5045323;28;20472;-82
2023/06/13 01:04:57;;;;;;;4.28;2.80;;;;;;;;;;5031520;28;20037;-83
2023/06/13 01:07:29;;;;;;;3.95;2.90;;;;;;;;;;5068555;28;20052;-83
2023/06/13 01:09:56;;;;;;;6.38;3.08;;;;;;;;;;5048360;28;20033;-83
2023/06/13 01:12:54;;;;;;;3.55;2.60;;;;;;;;;;5037071;28;20103;-82
2023/06/13 01:15:21;;;;;;;4.05;2.80;;;;;;;;;;5046789;28;20036;-82
2023/06/13 01:17:57;;;;;;;4.03;2.70;;;;;;;;;;5060984;28;20045;-83
2023/06/13 01:20:27;;;;;;;4.28;2.80;;;;;;;;;;5032895;28;20068;-82
2023/06/13 01:23:04;;;;;;;4.78;2.78;;;;;;;;;;5038088;28;20022;-83
2023/06/13 01:26:03;;;;;;;7.47;2.58;;;;;;;;;;5051313;28;20045;-81
2023/06/13 01:28:33;;;;;;;7.03;2.70;;;;;;;;;;5067851;28;20036;-82
2023/06/13 01:31:05;;;;;;;5.85;2.75;;;;;;;;;;5056613;28;20026;-82
2023/06/13 01:33:31;;;;;;;7.82;3.13;;;;;;;;;;5060120;28;20051;-82
2023/06/13 01:35:56;;;;;;;5.75;2.78;;;;;;;;;;5045215;28;20113;-83
2023/06/13 01:38:22;;;;;;;3.90;2.70;;;;;;;;;;5065166;28;20048;-82
2023/06/13 01:40:48;;;;;;;8.27;2.90;;;;;;;;;;5068647;28;20025;-81
2023/06/13 01:43:14;;;;;;;4.43;2.80;;;;;;;;;;5044207;28;20029;-82
2023/06/13 01:45:40;;;;;;;3.85;2.90;;;;;;;;;;5053713;28;20024;-82
2023/06/13 01:48:46;;;;;;;6.47;2.90;;;;;;;;;;5057599;28;20060;-82
2023/06/13 01:51:21;;;;;;;4.10;2.90;;;;;;;;;;5061114;28;20037;-82
2023/06/13 01:53:55;;;;;;;4.45;2.92;;;;;;;;;;5064867;28;20033;-82
2023/06/13 01:56:28;;;;;;;5.65;3.10;;;;;;;;;;5036676;28;20072;-82
2023/06/13 01:58:59;;;;;;;4.70;2.83;;;;;;;;;;5016229;28;20041;-82
2023/06/13 02:01:34;;;;;;;4.50;3.00;;;;;;;;;;5046734;28;20085;-81
2023/06/13 02:04:01;;;;;;;3.92;2.65;;;;;;;;;;5056759;28;20033;-82
2023/06/13 02:06:28;;;;;;;6.25;3.08;;;;;;;;;;5042634;28;20065;-82
2023/06/13 02:08:54;;;;;;;5.15;2.90;;;;;;;;;;5062252;28;20076;-82
2023/06/13 02:11:19;;;;;;;7.47;2.95;;;;;;;;;;5065681;28;20029;-83
2023/06/13 02:13:45;;;;;;;4.50;3.28;;;;;;;;;;5033634;28;20108;-82
2023/06/13 02:16:12;;;;;;;7.50;3.30;;;;;;;;;;5039164;28;20036;-82
2023/06/13 02:18:39;;;;;;;6.05;2.92;;;;;;;;;;5036984;28;20041;-81
2023/06/13 02:21:05;;;;;;;4.53;2.92;;;;;;;;;;5056688;28;20056;-81
2023/06/13 02:23:31;;;;;;;4.85;3.20;;;;;;;;;;5059254;28;20029;-82
2023/06/13 02:25:57;;;;;;;3.95;2.83;;;;;;;;;;5045026;28;20036;-82
2023/06/13 02:28:23;;;;;;;4.70;2.95;;;;;;;;;;5031839;28;20060;-82
2023/06/13 02:30:48;;;;;;;7.15;3.05;;;;;;;;;;5068268;28;20143;-82
2023/06/13 02:33:15;;;;;;;4.15;3.20;;;;;;;;;;5038485;28;20083;-81
2023/06/13 02:35:44;;;;;;;5.70;3.15;;;;;;;;;;5037180;28;20025;-82
2023/06/13 02:38:09;;;;;;;5.38;3.10;;;;;;;;;;5039857;28;20530;-81
2023/06/13 02:40:38;;;;;;;4.75;3.20;;;;;;;;;;5042258;28;20045;-81
2023/06/13 02:43:04;;;;;;;3.85;2.95;;;;;;;;;;5038291;28;20041;-81
2023/06/13 02:45:29;;;;;;;5.20;3.10;;;;;;;;;;5033688;28;20071;-82
2023/06/13 02:47:57;;;;;;;4.18;3.03;;;;;;;;;;5048696;28;20033;-82
2023/06/13 02:50:22;;;;;;;6.18;3.60;;;;;;;;;;5034698;28;20147;-82
2023/06/13 02:52:48;;;;;;;5.85;3.15;;;;;;;;;;5037815;28;20056;-82
2023/06/13 02:55:13;;;;;;;5.00;2.92;;;;;;;;;;5024309;28;20076;-82
2023/06/13 02:57:40;;;;;;;5.68;3.20;;;;;;;;;;5043441;28;20037;-81
2023/06/13 03:00:11;;;;;;;4.50;3.03;;;;;;;;;;5045606;28;20101;-82
2023/06/13 03:02:39;;;;;;;;;;;;;;;;;;5034952;28;20120;-81
2023/06/13 03:05:09;;;;;;;5.40;3.10;;;;;;;;;;5032662;28;19920;-82
2023/06/13 03:07:35;;;;;;;6.90;3.45;;;;;;;;;;5035674;28;20044;-82
2023/06/13 03:10:03;;;;;;;4.18;3.10;;;;;;;;;;5054247;28;20017;-82
2023/06/13 03:12:32;;;;;;;6.70;3.00;;;;;;;;;;5041924;28;20033;-81
2023/06/13 03:14:57;;;;;;;5.97;3.10;;;;;;;;;;5056326;28;20123;-82
2023/06/13 03:17:23;;;;;;;5.13;3.17;;;;;;;;;;5050123;28;20032;-81
2023/06/13 03:19:50;;;;;;;4.80;3.20;;;;;;;;;;5067633;28;20092;-81
2023/06/13 03:22:16;;;;;;;6.72;3.25;;;;;;;;;;5038189;28;20036;-82
2023/06/13 03:24:42;;;;;;;5.63;3.20;;;;;;;;;;5034775;28;20044;-82
2023/06/13 03:27:12;;;;;;;4.57;3.05;;;;;;;;;;5038745;28;20041;-82
2023/06/13 03:29:42;;;;;;;4.93;3.17;;;;;;;;;;5040513;28;20060;-82
2023/06/13 03:32:08;;;;;;;6.88;3.35;;;;;;;;;;5046198;28;20037;-82
2023/06/13 03:34:38;;;;;;;12.10;3.72;;;;;;;;;;5033374;28;20491;-81
2023/06/13 03:37:05;;;;;;;4.65;3.10;;;;;;;;;;5031513;28;20033;-81
2023/06/13 03:39:33;;;;;;;5.97;2.97;;;;;;;;;;5016724;28;20041;-81
2023/06/13 03:41:59;;;;;;;5.50;3.60;;;;;;;;;;5035882;28;20064;-82
2023/06/13 03:44:25;;;;;;;5.55;3.20;;;;;;;;;;5041245;28;20037;-81
2023/06/13 03:46:51;;;;;;;4.47;3.20;;;;;;;;;;5038507;28;20044;-82
2023/06/13 03:49:18;;;;;;;7.78;3.42;;;;;;;;;;5061478;28;20048;-83
2023/06/13 03:51:44;;;;;;;6.80;4.15;;;;;;;;;;5049627;28;20037;-83
2023/06/13 03:54:10;;;;;;;5.30;3.35;;;;;;;;;;5029659;28;20072;-82
2023/06/13 03:56:36;;;;;;;6.50;3.35;;;;;;;;;;5033740;28;20038;-82
2023/06/13 03:59:02;;;;;;;7.45;3.58;;;;;;;;;;5054083;28;20041;-83
2023/06/13 04:01:28;;;;;;;4.45;3.30;;;;;;;;;;5039595;28;20056;-83
2023/06/13 04:03:54;;;;;;;5.60;3.70;;;;;;;;;;5059651;28;20032;-82
2023/06/13 04:06:20;;;;;;;4.57;3.10;;;;;;;;;;5045447;28;20024;-83
2023/06/13 04:08:45;;;;;;;5.88;3.50;;;;;;;;;;5048293;28;20037;-84
2023/06/13 04:11:11;;;;;;;3.88;3.28;;;;;;;;;;5038990;28;20087;-82
2023/06/13 04:13:37;;;;;;;6.93;3.67;;;;;;;;;;5034920;28;20064;-82
2023/06/13 04:16:02;;;;;;;6.10;3.40;;;;;;;;;;5054175;28;20112;-82
2023/06/13 04:18:28;;;;;;;4.28;3.10;;;;;;;;;;5056937;28;20058;-82
2023/06/13 04:20:57;;;;;;;5.05;3.17;;;;;;;;;;5037604;28;20145;-82
2023/06/13 04:23:25;;;;;;;6.97;3.65;;;;;;;;;;5053465;28;20033;-82
2023/06/13 04:25:52;;;;;;;4.72;3.40;;;;;;;;;;5018208;28;20040;-82
2023/06/13 04:28:18;;;;;;;6.50;3.47;;;;;;;;;;5035280;28;20037;-82
2023/06/13 04:30:47;;;;;;;7.55;3.50;;;;;;;;;;5037075;28;20079;-81
2023/06/13 04:33:17;;;;;;;12.18;3.50;;;;;;;;;;5041014;28;20042;-82
2023/06/13 04:35:44;;;;;;;5.43;3.47;;;;;;;;;;5061391;28;20541;-82
2023/06/13 04:38:20;;;;;;;8.45;3.30;;;;;;;;;;5065044;28;20037;-82
2023/06/13 04:40:46;;;;;;;6.78;3.55;;;;;;;;;;5067831;28;20084;-82
2023/06/13 04:43:14;;;;;;;6.45;3.60;;;;;;;;;;5062785;28;20029;-82
2023/06/13 04:45:44;;;;;;;6.65;3.38;;;;;;;;;;5036199;28;20041;-82
2023/06/13 04:48:11;;;;;;;6.85;3.67;;;;;;;;;;5038444;28;20041;-82
2023/06/13 04:50:40;;;;;;;5.22;3.45;;;;;;;;;;5059995;28;20045;-82
2023/06/13 04:53:11;;;;;;;7.18;3.30;;;;;;;;;;5043973;28;20044;-82
2023/06/13 04:55:38;;;;;;;4.63;3.65;;;;;;;;;;5036854;28;20052;-82
2023/06/13 04:58:04;;;;;;;6.95;3.80;;;;;;;;;;5034575;28;20044;-82
2023/06/13 05:00:30;;;;;;;4.50;3.40;;;;;;;;;;5051955;28;20033;-82
2023/06/13 05:02:55;;;;;;;5.63;3.50;;;;;;;;;;5036669;28;20051;-82
2023/06/13 05:05:22;;;;;;;5.15;3.40;;;;;;;;;;5056611;28;20047;-82
2023/06/13 05:07:59;;;;;;;6.50;3.60;;;;;;;;;;5060274;28;20080;-82
2023/06/13 05:10:26;;;;;;;9.00;3.67;;;;;;;;;;5062488;28;20062;-82
2023/06/13 05:12:52;;;;;;;4.60;3.40;;;;;;;;;;5048338;28;20041;-81
2023/06/13 05:15:19;;;;;;;5.80;3.42;;;;;;;;;;5063744;28;20133;-81
2023/06/13 05:17:45;;;;;;;7.97;3.70;;;;;;;;;;5049381;28;20045;-82
2023/06/13 05:20:12;;;;;;;6.55;3.65;;;;;;;;;;5063097;28;20159;-81
2023/06/13 05:22:39;;;;;;;4.82;3.40;;;;;;;;;;5036709;28;20064;-80
2023/06/13 05:25:08;;;;;;;4.72;3.40;;;;;;;;;;5056910;28;20029;-82
2023/06/13 05:27:34;;;;;;;4.32;3.13;;;;;;;;;;5042798;28;20041;-80
2023/06/13 05:30:00;;;;;;;7.78;3.20;;;;;;;;;;5062664;28;20490;-81
2023/06/13 05:32:26;;;;;;;5.95;3.15;;;;;;;;;;5043410;28;20048;-81
2023/06/13 05:34:51;;;;;;;6.20;3.38;;;;;;;;;;5029262;28;20093;-81
2023/06/13 05:37:17;;;;;;;7.03;3.20;;;;;;;;;;5031271;28;20037;-81
2023/06/13 05:39:43;;;;;;;7.72;3.05;;;;;;;;;;5037042;28;20058;-81
2023/06/13 05:42:09;;;;;;;6.45;3.13;;;;;;;;;;5037367;28;20080;-81
2023/06/13 05:44:34;;;;;;;5.25;3.30;;;;;;;;;;5060642;28;20037;-80
2023/06/13 05:47:00;;;;;;;5.03;3.58;;;;;;;;;;5047866;28;20025;-81
2023/06/13 05:49:25;;;;;;;6.03;3.38;;;;;;;;;;5043464;28;20053;-81
2023/06/13 05:51:52;;;;;;;3.97;3.30;;;;;;;;;;5028734;28;20726;-82
2023/06/13 05:54:18;;;;;;;6.40;3.30;;;;;;;;;;5036895;28;20052;-81
2023/06/13 05:56:44;;;;;;;5.85;2.88;;;;;;;;;;5056614;28;20041;-81
2023/06/13 05:59:09;;;;;;;7.65;3.30;;;;;;;;;;5055281;28;20043;-80
2023/06/13 06:01:36;;;;;;;4.43;3.17;;;;;;;;;;5022573;28;20033;-80
2023/06/13 06:04:01;;;;;;;4.70;3.47;;;;;;;;;;5061347;28;20552;-81
2023/06/13 06:06:27;;;;;;;5.13;3.45;;;;;;;;;;5031033;28;20032;-81
2023/06/13 06:08:52;;;;;;;6.15;3.22;;;;;;;;;;5026408;28;20108;-81
2023/06/13 06:11:18;;;;;;;9.68;3.40;;;;;;;;;;5048746;28;20045;-80
2023/06/13 06:13:44;;;;;;;6.35;3.13;;;;;;;;;;5052971;28;20040;-81
2023/06/13 06:16:10;;;;;;;6.70;3.00;;;;;;;;;;5057276;28;20450;-80
2023/06/13 06:18:36;;;;;;;5.50;3.15;;;;;;;;;;5041771;28;20036;-82
2023/06/13 06:21:02;;;;;;;3.85;2.90;;;;;;;;;;5065706;28;20046;-81
2023/06/13 06:23:28;;;;;;;4.97;2.70;;;;;;;;;;5045649;28;20033;-81
2023/06/13 06:25:53;;;;;;;7.57;2.92;;;;;;;;;;5050765;28;20033;-82
2023/06/13 06:28:18;;;;;;;4.53;2.83;;;;;;;;;;5036574;28;20049;-83
2023/06/13 06:30:44;;;;;;;3.50;2.90;;;;;;;;;;5034338;28;20029;-82
2023/06/13 06:33:10;;;;;;;5.85;2.95;;;;;;;;;;5036864;28;20024;-82
2023/06/13 06:35:35;;;;;;;3.85;2.88;;;;;;;;;;5055934;28;20036;-82
2023/06/13 06:38:01;;;;;;;5.32;3.05;;;;;;;;;;5026030;28;20044;-81
2023/06/13 06:40:26;;;;;;;5.55;2.85;;;;;;;;;;5051700;28;20024;-83
2023/06/13 06:42:52;;;;;;;6.80;2.83;;;;;;;;;;5046542;28;20032;-82
2023/06/13 06:45:25;;;;;;;5.53;2.80;;;;;;;;;;5024546;28;20026;-82
2023/06/13 06:47:51;;;;;;;10.27;3.00;;;;;;;;;;5039918;28;20041;-82
2023/06/13 06:50:17;;;;;;;4.40;2.70;;;;;;;;;;5044885;28;20096;-82
2023/06/13 06:52:42;;;;;;;6.03;3.15;;;;;;;;;;5030111;28;20041;-82
2023/06/13 06:55:08;;;;;;;6.65;2.58;;;;;;;;;;5056443;28;20041;-82
2023/06/13 06:57:33;;;;;;;9.90;2.75;;;;;;;;;;5036383;28;20552;-83
2023/06/13 06:59:59;;;;;;;6.20;2.60;;;;;;;;;;5043072;28;20059;-82
2023/06/13 07:02:24;;;;;;;4.25;2.78;;;;;;;;;;5061626;28;20060;-83
2023/06/13 07:04:50;;;;;;;5.50;3.00;;;;;;;;;;5044536;28;20052;-82
2023/06/13 07:07:16;;;;;;;5.40;2.58;;;;;;;;;;5047324;28;20061;-83
2023/06/13 07:09:41;;;;;;;6.13;2.80;;;;;;;;;;5051760;28;20025;-83
2023/06/13 07:12:07;;;;;;;5.90;2.58;;;;;;;;;;5033949;28;20102;-82
2023/06/13 07:14:33;;;;;;;7.43;2.80;;;;;;;;;;5040589;28;20120;-83
2023/06/13 07:16:58;;;;;;;3.95;2.30;;;;;;;;;;5042402;28;20048;-81
2023/06/13 07:19:24;;;;;;;9.23;2.63;;;;;;;;;;5059544;28;20033;-83
2023/06/13 07:21:49;;;;;;;6.65;2.70;;;;;;;;;;5042883;28;20025;-82
2023/06/13 07:24:15;;;;;;;4.25;2.60;;;;;;;;;;5040769;28;20033;-83
2023/06/13 07:26:40;;;;;;;5.43;2.63;;;;;;;;;;5026324;28;20092;-84
2023/06/13 07:29:06;;;;;;;4.28;2.58;;;;;;;;;;5051101;28;20116;-83
2023/06/13 07:31:31;;;;;;;5.93;2.58;;;;;;;;;;5022025;28;20029;-83
2023/06/13 07:33:57;;;;;;;6.68;2.78;;;;;;;;;;5033272;28;20041;-83
2023/06/13 07:36:22;;;;;;;4.38;2.67;;;;;;;;;;5023241;28;20021;-83
2023/06/13 07:38:51;;;;;;;7.80;2.58;;;;;;;;;;5048427;28;20442;-84
2023/06/13 07:41:16;;;;;;;4.00;2.42;;;;;;;;;;5031138;28;20096;-83
2023/06/13 07:43:42;;;;;;;5.03;2.50;;;;;;;;;;5032549;28;20463;-83
2023/06/13 07:46:07;;;;;;;6.03;2.25;;;;;;;;;;5025628;28;20037;-83
2023/06/13 07:48:32;;;;;;;9.75;2.80;;;;;;;;;;5044431;28;20033;-83
2023/06/13 07:50:58;;;;;;;5.30;2.60;;;;;;;;;;5044408;28;20064;-83
2023/06/13 07:53:23;;;;;;;9.25;2.67;;;;;;;;;;5049285;28;20037;-84
2023/06/13 07:55:50;;;;;;;12.32;2.85;;;;;;;;;;5053086;28;20040;-84
2023/06/13 07:58:16;;;;;;;5.28;2.42;;;;;;;;;;5035816;28;20033;-83
2023/06/13 08:00:41;;;;;;;5.13;2.60;;;;;;;;;;5048043;28;20441;-86
2023/06/13 08:03:07;;;;;;;4.95;2.80;;;;;;;;;;5044060;28;20101;-82
2023/06/13 08:05:32;;;;;;;3.58;2.47;;;;;;;;;;5045564;28;20037;-83
2023/06/13 08:07:58;;;;;;;9.25;2.40;;;;;;;;;;5033934;28;20053;-83
2023/06/13 08:10:25;;;;;;;5.15;2.50;;;;;;;;;;5051865;28;20557;-83
2023/06/13 08:12:52;;;;;;;7.10;2.75;;;;;;;;;;5057588;28;20495;-83
2023/06/13 08:15:18;;;;;;;5.35;2.55;;;;;;;;;;5034684;28;20033;-84
2023/06/13 08:17:44;;;;;;;11.55;2.50;;;;;;;;;;5052361;28;20110;-84
2023/06/13 08:20:10;;;;;;;5.32;2.63;;;;;;;;;;5047345;28;20045;-84
2023/06/13 08:22:39;;;;;;;3.60;2.45;;;;;;;;;;5048851;28;20037;-81
2023/06/13 08:25:08;;;;;;;6.53;2.42;;;;;;;;;;5031781;28;20044;-82
2023/06/13 08:27:35;;;;;;;5.43;2.60;;;;;;;;;;5057669;28;20041;-83
2023/06/13 08:30:03;;;;;;;5.53;2.30;;;;;;;;;;5044090;28;20113;-84
2023/06/13 08:32:29;;;;;;;8.82;2.70;;;;;;;;;;5045601;28;20033;-84
2023/06/13 08:34:55;;;;;;;4.85;2.40;;;;;;;;;;5048574;28;20051;-84
2023/06/13 08:37:20;;;;;;;4.00;2.40;;;;;;;;;;5063701;28;20034;-83
2023/06/13 08:39:45;;;;;;;5.30;2.40;;;;;;;;;;5053287;28;20284;-84
2023/06/13 08:42:12;;;;;;;5.25;2.40;;;;;;;;;;5033790;28;20044;-84
2023/06/13 08:44:38;;;;;;;3.90;2.50;;;;;;;;;;5059481;28;20034;-84
2023/06/13 08:47:04;;;;;;;10.98;2.60;;;;;;;;;;5061815;28;20052;-84
2023/06/13 08:49:30;;;;;;;9.52;2.83;;;;;;;;;;5049964;28;20036;-84
2023/06/13 08:51:57;;;;;;;4.70;2.78;;;;;;;;;;5050490;28;20041;-84
2023/06/13 08:54:25;;;;;;;5.13;2.72;;;;;;;;;;5044821;28;20088;-84
2023/06/13 08:56:53;;;;;;;5.53;2.47;;;;;;;;;;5052817;28;20060;-83
2023/06/13 08:59:25;;;;;;;5.97;2.63;;;;;;;;;;5039387;28;20037;-85
2023/06/13 09:01:52;;;;;;;7.00;2.60;;;;;;;;;;5060090;28;20052;-85
2023/06/13 09:04:18;;;;;;;5.93;2.60;;;;;;;;;;5040488;28;20045;-83
2023/06/13 09:06:45;;;;;;;7.93;2.40;;;;;;;;;;5055271;28;20044;-84
2023/06/13 09:09:12;;;;;;;4.47;2.90;;;;;;;;;;5050717;28;20388;-83
2023/06/13 09:11:37;;;;;;;5.13;2.50;;;;;;;;;;5050967;28;20037;-84
2023/06/13 09:14:07;;;;;;;5.60;2.58;;;;;;;;;;5054950;28;20045;-84
2023/06/13 09:16:33;;;;;;;7.68;2.70;;;;;;;;;;5056991;28;20029;-84
2023/06/13 09:18:59;;;;;;;5.07;2.50;;;;;;;;;;5041949;28;20044;-84
2023/06/13 09:21:25;;;;;;;5.65;2.65;;;;;;;;;;5037739;28;20463;-83
2023/06/13 09:23:55;;;;;;;6.68;2.40;;;;;;;;;;5052755;28;20108;-84
2023/06/13 09:26:20;;;;;;;3.60;2.50;;;;;;;;;;5050877;28;20061;-84
2023/06/13 09:28:49;;;;;;;5.63;2.17;;;;;;;;;;5023333;28;20040;-81
2023/06/13 09:31:14;;;;;;;10.00;2.47;;;;;;;;;;5027191;28;20044;-85
2023/06/13 09:33:43;;;;;;;5.30;2.83;;;;;;;;;;5039832;28;20105;-83
2023/06/13 09:36:12;;;;;;;5.82;2.35;;;;;;;;;;5060365;28;20080;-84
2023/06/13 09:38:40;;;;;;;5.57;2.50;;;;;;;;;;5042340;28;20048;-83
2023/06/13 09:41:19;;;;;;;6.88;2.67;;;;;;;;;;5049333;28;20037;-83
2023/06/13 09:43:44;;;;;;;7.30;2.60;;;;;;;;;;5056038;28;20045;-83
2023/06/13 09:46:11;;;;;;;8.38;2.40;;;;;;;;;;5034424;28;20041;-83
2023/06/13 09:48:37;;;;;;;4.40;2.40;;;;;;;;;;5036674;28;20033;-85
2023/06/13 09:51:09;;;;;;;7.95;2.55;;;;;;;;;;5059035;28;20035;-85
2023/06/13 09:53:35;;;;;;;7.35;2.60;;;;;;;;;;5061352;28;20048;-83
2023/06/13 09:56:00;;;;;;;8.05;2.50;;;;;;;;;;5063887;28;20036;-85
2023/06/13 09:58:26;;;;;;;4.20;2.50;;;;;;;;;;5066760;28;20491;-84
2023/06/13 10:00:57;;;;;;;7.00;2.40;;;;;;;;;;5051070;28;20044;-84
2023/06/13 10:03:23;;;;;;;6.28;2.70;;;;;;;;;;5044983;28;20104;-83
2023/06/13 10:05:49;;;;;;;3.72;2.60;;;;;;;;;;5059918;28;20041;-83
2023/06/13 10:08:15;;;;;;;7.35;2.60;;;;;;;;;;5040159;28;20048;-84
2023/06/13 10:10:41;;;;;;;6.75;2.67;;;;;;;;;;5032424;28;20029;-83
2023/06/13 10:13:10;;;;;;;5.03;2.45;;;;;;;;;;5046465;28;20064;-83
2023/06/13 10:15:46;;;;;;;5.57;2.40;;;;;;;;;;5023773;28;20052;-84
2023/06/13 10:18:14;;;;;;;7.80;2.75;;;;;;;;;;5046155;28;20040;-85
2023/06/13 10:20:41;;;;;;;5.15;2.60;;;;;;;;;;5048772;28;20029;-83
2023/06/13 10:23:06;;;;;;;6.82;2.70;;;;;;;;;;5022963;28;20060;-84
2023/06/13 10:25:33;;;;;;;5.88;2.50;;;;;;;;;;5061215;28;20061;-83
2023/06/13 10:28:08;;;;;;;5.13;2.85;;;;;;;;;;5011335;28;20410;-83
2023/06/13 10:30:57;;;;;;;4.10;2.47;;;;;;;;;;5035111;28;20021;-84
2023/06/13 10:33:25;;;;;;;6.38;2.47;;;;;;;;;;5041839;28;20063;-85
2023/06/13 10:36:11;;;;;;;3.55;2.40;;;;;;;;;;5036937;28;20042;-83
2023/06/13 10:38:53;;;;;;;3.83;2.47;;;;;;;;;;5050272;28;20462;-83
2023/06/13 10:41:49;;;;;;;10.68;2.60;;;;;;;;;;5043999;28;20048;-83
2023/06/13 10:44:18;;;;;;;5.38;2.60;;;;;;;;;;5048221;28;20048;-83
2023/06/13 10:46:44;;;;;;;5.30;2.60;;;;;;;;;;5060983;28;20483;-83
2023/06/13 10:49:15;;;;;;;4.85;2.72;;;;;;;;;;5039475;28;20038;-84
2023/06/13 10:51:42;;;;;;;4.32;2.63;;;;;;;;;;5054590;28;20064;-85
2023/06/13 10:54:09;;;;;;;7.03;2.45;;;;;;;;;;5032827;28;20063;-84
2023/06/13 10:56:39;;;;;;;5.97;2.58;;;;;;;;;;5048643;28;20044;-84
2023/06/13 10:59:09;;;;;;;7.88;2.80;;;;;;;;;;5044870;28;20061;-83
2023/06/13 11:01:37;;;;;;;5.70;2.40;;;;;;;;;;5031023;28;20033;-84
2023/06/13 11:04:12;;;;;;;6.35;2.53;;;;;;;;;;5034615;28;20029;-85
2023/06/13 11:06:40;;;;;;;5.13;2.60;;;;;;;;;;5054732;28;20032;-85
2023/06/13 11:09:15;;;;;;;5.03;2.75;;;;;;;;;;5038328;28;20025;-84
2023/06/13 11:11:49;;;;;;;3.72;2.47;;;;;;;;;;5045294;28;20032;-84
2023/06/13 11:14:19;;;;;;;5.22;2.58;;;;;;;;;;5065568;28;20045;-85
2023/06/13 11:16:45;;;;;;;8.75;2.67;;;;;;;;;;5052479;28;20033;-85
2023/06/13 11:19:26;;;;;;;4.53;2.70;;;;;;;;;;5033408;28;20075;-85
2023/06/13 11:21:58;;;;;;;3.70;2.58;;;;;;;;;;5044343;28;20060;-88
2023/06/13 11:24:23;;;;;;;5.70;2.80;;;;;;;;;;5040473;28;20052;-88
2023/06/13 11:26:50;;;;;;;3.63;2.45;;;;;;;;;;5054896;28;20033;-87
2023/06/13 11:29:17;;;;;;;5.70;2.50;;;;;;;;;;5012588;28;20099;-87
2023/06/13 11:31:42;;;;;;;4.70;2.85;;;;;;;;;;5045610;28;20034;-88
2023/06/13 11:34:15;;;;;;;4.00;2.50;;;;;;;;;;5052528;28;20041;-87
2023/06/13 11:36:43;;;;;;;7.15;2.70;;;;;;;;;;5050548;28;20037;-87
2023/06/13 11:39:13;;;;;;;7.03;2.60;;;;;;;;;;5039765;28;20537;-87
2023/06/13 11:41:40;;;;;;;6.25;2.40;;;;;;;;;;5059218;28;20051;-88
2023/06/13 11:44:06;;;;;;;10.77;2.58;;;;;;;;;;5041663;28;20033;-88
2023/06/13 11:46:32;;;;;;;7.65;2.58;;;;;;;;;;5047097;28;20063;-88
2023/06/13 11:48:58;;;;;;;11.75;2.80;;;;;;;;;;5040837;28;20029;-87
2023/06/13 11:51:26;;;;;;;3.72;2.50;;;;;;;;;;5049524;28;20503;-89
2023/06/13 11:53:57;;;;;;;5.18;2.70;;;;;;;;;;5049700;28;20063;-87
2023/06/13 11:56:27;;;;;;;7.85;2.50;;;;;;;;;;5056136;28;20079;-86
2023/06/13 11:58:55;;;;;;;4.18;2.60;;;;;;;;;;5056348;28;20037;-88
2023/06/13 12:01:24;;;;;;;6.65;2.25;;;;;;;;;;5066363;28;20045;-88
2023/06/13 12:03:50;;;;;;;4.43;2.70;;;;;;;;;;5069427;28;20033;-86
2023/06/13 12:06:17;;;;;;;4.10;2.58;;;;;;;;;;5038921;28;20033;-88
2023/06/13 12:08:51;;;;;;;4.07;2.70;;;;;;;;;;5053273;28;20117;-87
2023/06/13 12:11:18;;;;;;;7.90;2.58;;;;;;;;;;5052050;28;20037;-87
2023/06/13 12:13:59;;;;;;;6.65;2.65;;;;;;;;;;5057411;28;20053;-86
2023/06/13 12:16:27;;;;;;;6.68;2.63;;;;;;;;;;5058716;28;20491;-87
2023/06/13 12:18:54;;;;;;;10.00;2.40;;;;;;;;;;5045764;28;20036;-87
2023/06/13 12:21:22;;;;;;;7.93;2.67;;;;;;;;;;5043220;28;20128;-87
2023/06/13 12:23:48;;;;;;;6.82;2.50;;;;;;;;;;5047055;28;20041;-86
2023/06/13 12:26:14;;;;;;;6.22;3.10;;;;;;;;;;5048571;28;20068;-86
2023/06/13 12:28:41;;;;;;;6.45;2.72;;;;;;;;;;5051254;28;20047;-86
2023/06/13 12:31:09;;;;;;;5.05;2.45;;;;;;;;;;5031674;28;20029;-87
2023/06/13 12:33:35;;;;;;;5.97;2.45;;;;;;;;;;5029119;28;20524;-85
2023/06/13 12:36:04;;;;;;;5.70;2.83;;;;;;;;;;5044267;28;20049;-86
2023/06/13 12:38:31;;;;;;;6.03;2.60;;;;;;;;;;5025010;28;20040;-85
2023/06/13 12:41:00;;;;;;;4.15;2.53;;;;;;;;;;5045336;28;20064;-86
2023/06/13 12:43:27;;;;;;;6.20;2.92;;;;;;;;;;5035702;28;20116;-87
2023/06/13 12:45:56;;;;;;;7.13;2.70;;;;;;;;;;5052450;28;20110;-85
2023/06/13 12:48:22;;;;;;;4.43;2.47;;;;;;;;;;5048174;28;20048;-87
2023/06/13 12:50:49;;;;;;;4.70;2.72;;;;;;;;;;5046028;28;20053;-84
2023/06/13 12:53:20;;;;;;;6.38;2.80;;;;;;;;;;5042495;28;20515;-86
2023/06/13 12:55:47;;;;;;;5.63;2.53;;;;;;;;;;5043094;28;20041;-85
2023/06/13 12:58:38;;;;;;;7.20;2.70;;;;;;;;;;5028657;28;20483;-86
2023/06/13 13:01:07;;;;;;;4.80;2.38;;;;;;;;;;5038260;28;20043;-86
2023/06/13 13:03:34;;;;;;;5.60;2.80;;;;;;;;;;5052180;28;20116;-85
2023/06/13 13:06:01;;;;;;;5.85;2.60;;;;;;;;;;5047407;28;20056;-87
2023/06/13 13:08:27;;;;;;;3.25;2.30;;;;;;;;;;5044813;28;20033;-86
2023/06/13 13:10:53;;;;;;;7.18;2.60;;;;;;;;;;5043466;28;20486;-86
2023/06/13 13:13:19;;;;;;;4.00;2.40;;;;;;;;;;5028165;28;20048;-87
2023/06/13 13:15:46;;;;;;;5.32;2.60;;;;;;;;;;5048832;28;20053;-87
2023/06/13 13:18:12;;;;;;;5.03;2.50;;;;;;;;;;5050506;28;20060;-86
2023/06/13 13:20:38;;;;;;;7.30;2.65;;;;;;;;;;5033593;28;20063;-87
2023/06/13 13:23:04;;;;;;;3.65;2.30;;;;;;;;;;5053782;28;20032;-85
2023/06/13 13:25:30;;;;;;;9.23;2.60;;;;;;;;;;5042991;28;20064;-87
2023/06/13 13:27:56;;;;;;;7.43;2.70;;;;;;;;;;5030729;28;20113;-86
2023/06/13 13:30:22;;;;;;;6.22;2.70;;;;;;;;;;5031589;28;20072;-86
2023/06/13 13:32:50;;;;;;;4.63;2.63;;;;;;;;;;5053885;28;20033;-86
2023/06/13 13:35:16;;;;;;;4.18;2.58;;;;;;;;;;5053416;28;20076;-85
2023/06/13 13:37:42;;;;;;;4.97;2.40;;;;;;;;;;5038998;28;20053;-85
2023/06/13 13:40:08;;;;;;;8.60;2.70;;;;;;;;;;5028471;28;20034;-86
2023/06/13 13:42:36;;;;;;;5.97;2.63;;;;;;;;;;5033528;28;20128;-85
2023/06/13 13:45:06;;;;;;;6.65;2.83;;;;;;;;;;5020473;28;20084;-86
2023/06/13 13:47:33;;;;;;;10.32;2.50;;;;;;;;;;5042990;28;20064;-87
2023/06/13 13:49:59;;;;;;;6.10;2.50;;;;;;;;;;5028226;28;20039;-87
2023/06/13 13:52:25;;;;;;;8.02;2.78;;;;;;;;;;5031121;28;20072;-87
2023/06/13 13:54:51;;;;;;;7.00;2.30;;;;;;;;;;5051314;28;20036;-87
2023/06/13 13:57:17;;;;;;;4.20;2.80;;;;;;;;;;5023048;28;20072;-86
2023/06/13 13:59:44;;;;;;;5.40;2.60;;;;;;;;;;5038436;28;20025;-87
2023/06/13 14:02:10;;;;;;;5.68;2.30;;;;;;;;;;5040768;28;20056;-85
2023/06/13 14:04:36;;;;;;;4.68;2.38;;;;;;;;;;5025167;28;20037;-86
2023/06/13 14:07:02;;;;;;;5.45;2.70;;;;;;;;;;5026526;28;20091;-87
2023/06/13 14:09:27;;;;;;;6.65;2.50;;;;;;;;;;5048191;28;20558;-86
2023/06/13 14:11:53;;;;;;;4.47;2.38;;;;;;;;;;5053288;28;20388;-86
2023/06/13 14:14:18;;;;;;;3.72;2.50;;;;;;;;;;5038747;28;20041;-87
2023/06/13 14:16:44;;;;;;;4.05;2.15;;;;;;;;;;5048929;28;20018;-84
2023/06/13 14:19:10;;;;;;;4.25;2.22;;;;;;;;;;5031409;28;20042;-87
2023/06/13 14:21:35;;;;;;;3.35;2.10;;;;;;;;;;5051040;28;20032;-87
2023/06/13 14:24:01;;;;;;;5.20;2.58;;;;;;;;;;5048829;28;20411;-87
2023/06/13 14:26:27;;;;;;;3.90;2.35;;;;;;;;;;5052890;28;20029;-87
2023/06/13 14:28:53;;;;;;;5.32;2.33;;;;;;;;;;5036647;28;20032;-87
2023/06/13 14:31:19;;;;;;;8.70;2.40;;;;;;;;;;5037481;28;20025;-87
2023/06/13 14:33:45;;;;;;;5.30;2.60;;;;;;;;;;5021861;28;20037;-86
2023/06/13 14:36:11;;;;;;;3.95;2.47;;;;;;;;;;5044261;28;20034;-86
2023/06/13 14:38:38;;;;;;;5.03;2.42;;;;;;;;;;5028886;28;20035;-86
2023/06/13 14:41:07;;;;;;;6.97;2.40;;;;;;;;;;5015924;28;20405;-86
2023/06/13 14:43:32;;;;;;;7.13;2.40;;;;;;;;;;5045967;28;20041;-87
2023/06/13 14:45:58;;;;;;;4.95;2.45;;;;;;;;;;5044574;28;20067;-87